Time;durP1;ratioP1;P1;durP2;ratioP2;P2;SDS_P1;SDS_P2;PMS_P1;PMS_P2;Temp;Humidity;BMP_temperature;BMP_pressure;BME280_temperature;BME280_humidity;BME280_pressure;Samples;Min_cycle;Max_cycle;Signal;HPM_P1;HPM_P2
2023/12/24 00:00:07;;;;;;;4.78;2.50;;;;;;;;;;5015421;28;20381;-69
2023/12/24 00:02:33;;;;;;;8.63;2.72;;;;;;;;;;4997963;28;20405;-67
2023/12/24 00:04:59;;;;;;;7.05;2.90;;;;;;;;;;4997763;28;20765;-70
2023/12/24 00:07:25;;;;;;;6.30;2.78;;;;;;;;;;5015188;28;20379;-70
2023/12/24 00:09:51;;;;;;;6.63;2.85;;;;;;;;;;4997571;28;20923;-70
2023/12/24 00:12:17;;;;;;;5.38;2.60;;;;;;;;;;5015360;28;20400;-71
2023/12/24 00:14:43;;;;;;;5.45;2.67;;;;;;;;;;5014821;28;20511;-70
2023/12/24 00:17:09;;;;;;;8.65;2.80;;;;;;;;;;4997189;28;20412;-69
2023/12/24 00:19:35;;;;;;;9.83;3.00;;;;;;;;;;4997477;28;20400;-69
2023/12/24 00:22:01;;;;;;;8.80;2.70;;;;;;;;;;5014781;28;20420;-69
2023/12/24 00:24:27;;;;;;;7.63;2.90;;;;;;;;;;5015040;28;20468;-69
2023/12/24 00:26:53;;;;;;;6.60;2.47;;;;;;;;;;5014515;28;20392;-69
2023/12/24 00:29:19;;;;;;;6.15;2.60;;;;;;;;;;5014820;28;20381;-70
2023/12/24 00:31:45;;;;;;;4.88;2.28;;;;;;;;;;5014885;28;20400;-70
2023/12/24 00:34:11;;;;;;;7.37;2.60;;;;;;;;;;4997068;28;20396;-69
2023/12/24 00:36:37;;;;;;;7.05;2.53;;;;;;;;;;5014501;28;20392;-69
2023/12/24 00:39:03;;;;;;;6.85;2.45;;;;;;;;;;5014082;28;20894;-70
2023/12/24 00:41:30;;;;;;;6.65;2.55;;;;;;;;;;5013747;28;20411;-69
2023/12/24 00:43:56;;;;;;;6.53;2.42;;;;;;;;;;4996763;28;20412;-70
2023/12/24 00:46:22;;;;;;;8.10;2.65;;;;;;;;;;5014225;28;20373;-70
2023/12/24 00:48:48;;;;;;;3.90;2.40;;;;;;;;;;5014341;28;20434;-70
2023/12/24 00:51:14;;;;;;;10.85;2.85;;;;;;;;;;5014312;28;20396;-69
2023/12/24 00:53:40;;;;;;;6.25;2.30;;;;;;;;;;4995867;28;20404;-70
2023/12/24 00:56:06;;;;;;;4.50;2.42;;;;;;;;;;5014013;28;20380;-69
2023/12/24 00:58:32;;;;;;;7.68;2.58;;;;;;;;;;5014218;28;20404;-68
2023/12/24 01:00:58;;;;;;;5.32;2.30;;;;;;;;;;5013699;28;20963;-70
2023/12/24 01:03:24;;;;;;;6.07;2.40;;;;;;;;;;5014702;28;20861;-68
2023/12/24 01:05:49;;;;;;;8.05;2.40;;;;;;;;;;5014049;28;20373;-70
2023/12/24 01:08:15;;;;;;;5.57;2.38;;;;;;;;;;5013696;28;20407;-69
2023/12/24 01:10:42;;;;;;;5.13;2.43;;;;;;;;;;5014363;28;20377;-70
2023/12/24 01:13:08;;;;;;;6.05;2.30;;;;;;;;;;5013620;28;20389;-69
2023/12/24 01:15:34;;;;;;;4.07;2.33;;;;;;;;;;5013686;28;20920;-70
2023/12/24 01:18:00;;;;;;;4.43;2.13;;;;;;;;;;5013790;28;20385;-70
2023/12/24 01:20:26;;;;;;;5.53;2.20;;;;;;;;;;4996629;28;20470;-72
2023/12/24 01:22:52;;;;;;;3.80;2.22;;;;;;;;;;4996719;28;20389;-69
2023/12/24 01:25:18;;;;;;;4.88;2.33;;;;;;;;;;4996553;28;20392;-70
2023/12/24 01:27:43;;;;;;;6.03;2.40;;;;;;;;;;5014070;28;20475;-69
2023/12/24 01:30:10;;;;;;;7.38;2.55;;;;;;;;;;5014358;28;20419;-69
2023/12/24 01:32:36;;;;;;;7.70;2.40;;;;;;;;;;5014529;28;20384;-70
2023/12/24 01:35:02;;;;;;;6.32;1.98;;;;;;;;;;5013815;28;20476;-69
2023/12/24 01:37:28;;;;;;;7.35;2.75;;;;;;;;;;4996459;28;20392;-69
2023/12/24 01:39:54;;;;;;;7.77;2.60;;;;;;;;;;5014331;28;20385;-68
2023/12/24 01:42:19;;;;;;;8.88;2.47;;;;;;;;;;5013169;28;20416;-69
2023/12/24 01:44:46;;;;;;;6.72;2.50;;;;;;;;;;5013842;28;20414;-69
2023/12/24 01:47:12;;;;;;;6.88;2.42;;;;;;;;;;4996696;28;20389;-70
2023/12/24 01:49:38;;;;;;;7.75;2.90;;;;;;;;;;5013906;28;20476;-69
2023/12/24 01:52:05;;;;;;;5.72;2.47;;;;;;;;;;5013502;28;20482;-69
2023/12/24 01:54:31;;;;;;;5.32;2.22;;;;;;;;;;5013794;28;20398;-70
2023/12/24 01:56:58;;;;;;;5.20;2.45;;;;;;;;;;4995693;28;20395;-68
2023/12/24 01:59:24;;;;;;;7.32;2.50;;;;;;;;;;5013956;28;20442;-73
2023/12/24 02:01:50;;;;;;;7.22;2.30;;;;;;;;;;5013122;28;20922;-67
2023/12/24 02:04:16;;;;;;;7.78;2.20;;;;;;;;;;5013374;28;20373;-70
2023/12/24 02:06:42;;;;;;;6.78;2.05;;;;;;;;;;5013422;28;20728;-70
2023/12/24 02:09:08;;;;;;;10.02;2.33;;;;;;;;;;4996042;28;20384;-69
2023/12/24 02:11:34;;;;;;;6.07;2.03;;;;;;;;;;4995502;28;20469;-68
2023/12/24 02:14:02;;;;;;;6.43;2.30;;;;;;;;;;5013415;28;20389;-68
2023/12/24 02:16:30;;;;;;;6.18;1.88;;;;;;;;;;5013388;28;20419;-69
2023/12/24 02:18:56;;;;;;;6.53;2.10;;;;;;;;;;5013109;28;20464;-71
2023/12/24 02:21:22;;;;;;;7.18;2.22;;;;;;;;;;4995474;28;20547;-69
2023/12/24 02:23:48;;;;;;;5.45;1.85;;;;;;;;;;5012902;28;20491;-71
2023/12/24 02:26:33;;;;;;;4.93;1.70;;;;;;;;;;4995859;28;20469;-69
2023/12/24 02:29:04;;;;;;;7.88;1.73;;;;;;;;;;4995094;28;20389;-71
2023/12/24 02:31:32;;;;;;;4.85;1.90;;;;;;;;;;5012627;28;20404;-70
2023/12/24 02:33:59;;;;;;;3.38;1.70;;;;;;;;;;4995192;28;20864;-70
2023/12/24 02:36:25;;;;;;;4.68;1.95;;;;;;;;;;5015618;28;20978;-72
2023/12/24 02:38:51;;;;;;;4.90;1.77;;;;;;;;;;4998956;28;20808;-70
2023/12/24 02:41:17;;;;;;;6.88;1.92;;;;;;;;;;5015905;28;20412;-73
2023/12/24 02:43:43;;;;;;;6.63;1.95;;;;;;;;;;5016413;28;20380;-72
2023/12/24 02:46:09;;;;;;;5.07;1.70;;;;;;;;;;5017237;28;20867;-72
2023/12/24 02:48:35;;;;;;;6.37;2.23;;;;;;;;;;4998609;28;20771;-72
2023/12/24 02:51:01;;;;;;;5.07;1.70;;;;;;;;;;4999155;28;20778;-70
2023/12/24 02:53:27;;;;;;;4.60;1.70;;;;;;;;;;5016995;28;20401;-71
2023/12/24 02:55:53;;;;;;;4.13;1.60;;;;;;;;;;4999429;28;20473;-72
2023/12/24 02:58:19;;;;;;;4.03;1.80;;;;;;;;;;5016990;28;20385;-71
2023/12/24 03:00:45;;;;;;;6.35;2.03;;;;;;;;;;5016170;28;20419;-71
2023/12/24 03:03:11;;;;;;;6.63;2.20;;;;;;;;;;4999080;28;20480;-69
2023/12/24 03:05:37;;;;;;;8.70;2.20;;;;;;;;;;4999471;28;20416;-69
2023/12/24 03:08:03;;;;;;;4.25;2.17;;;;;;;;;;5017467;28;20399;-71
2023/12/24 03:10:29;;;;;;;4.53;2.17;;;;;;;;;;4999523;28;20435;-72
2023/12/24 03:12:55;;;;;;;4.88;2.35;;;;;;;;;;5017007;28;20487;-69
2023/12/24 03:15:21;;;;;;;4.00;2.10;;;;;;;;;;5016900;28;20397;-70
2023/12/24 03:17:47;;;;;;;4.38;2.08;;;;;;;;;;4999149;28;20420;-74
2023/12/24 03:20:13;;;;;;;5.00;2.40;;;;;;;;;;5016956;28;20882;-72
2023/12/24 03:22:39;;;;;;;4.80;2.40;;;;;;;;;;5017072;28;20396;-70
2023/12/24 03:25:05;;;;;;;5.32;2.80;;;;;;;;;;4999591;28;20442;-73
2023/12/24 03:27:31;;;;;;;4.82;2.80;;;;;;;;;;5017455;28;20391;-73
2023/12/24 03:29:57;;;;;;;4.28;2.47;;;;;;;;;;4999718;28;20447;-71
2023/12/24 03:32:23;;;;;;;4.40;2.60;;;;;;;;;;5016541;28;20401;-73
2023/12/24 03:34:49;;;;;;;4.78;2.97;;;;;;;;;;5016484;28;20393;-72
2023/12/24 03:37:15;;;;;;;6.32;2.85;;;;;;;;;;5016415;28;20451;-72
2023/12/24 03:39:41;;;;;;;4.10;2.70;;;;;;;;;;4998261;28;20400;-72
2023/12/24 03:42:07;;;;;;;4.72;2.42;;;;;;;;;;5015713;28;20415;-73
2023/12/24 03:44:33;;;;;;;3.30;2.67;;;;;;;;;;5015502;28;20372;-71
2023/12/24 03:46:59;;;;;;;2.72;2.42;;;;;;;;;;5014111;28;20424;-72
2023/12/24 03:49:25;;;;;;;3.97;2.30;;;;;;;;;;5014969;28;20443;-72
2023/12/24 03:51:51;;;;;;;3.25;2.10;;;;;;;;;;4997231;28;20397;-71
2023/12/24 03:54:21;;;;;;;2.42;2.20;;;;;;;;;;5015495;28;20392;-71
2023/12/24 03:56:47;;;;;;;2.30;1.83;;;;;;;;;;5016278;28;20467;-71
2023/12/24 03:59:13;;;;;;;3.13;1.90;;;;;;;;;;5015960;28;20389;-69
2023/12/24 04:01:39;;;;;;;4.15;1.80;;;;;;;;;;4999201;28;20409;-69
2023/12/24 04:04:05;;;;;;;2.25;1.70;;;;;;;;;;5016991;28;20552;-72
2023/12/24 04:06:31;;;;;;;1.83;1.60;;;;;;;;;;5015131;28;20392;-71
2023/12/24 04:08:57;;;;;;;2.05;1.60;;;;;;;;;;5015475;28;20381;-72
2023/12/24 04:11:24;;;;;;;2.38;1.73;;;;;;;;;;5015653;28;20407;-73
2023/12/24 04:13:50;;;;;;;1.73;1.50;;;;;;;;;;5015368;28;20906;-71
2023/12/24 04:16:17;;;;;;;2.05;1.58;;;;;;;;;;5015488;28;20392;-70
2023/12/24 04:18:43;;;;;;;2.10;1.50;;;;;;;;;;5015788;28;20392;-71
2023/12/24 04:21:09;;;;;;;1.83;1.60;;;;;;;;;;5015013;28;20832;-71
2023/12/24 04:23:35;;;;;;;1.50;1.40;;;;;;;;;;5014949;28;20384;-72
2023/12/24 04:26:01;;;;;;;1.95;1.52;;;;;;;;;;5015479;28;20404;-70
2023/12/24 04:28:27;;;;;;;1.50;1.40;;;;;;;;;;5015172;28;20391;-70
2023/12/24 04:30:53;;;;;;;1.90;1.30;;;;;;;;;;4997669;28;20396;-71
2023/12/24 04:33:19;;;;;;;1.40;1.30;;;;;;;;;;5015104;28;20805;-71
2023/12/24 04:35:45;;;;;;;1.80;1.40;;;;;;;;;;5014735;28;20456;-72
2023/12/24 04:38:11;;;;;;;1.50;1.40;;;;;;;;;;5015569;28;20389;-69
2023/12/24 04:40:37;;;;;;;2.40;1.35;;;;;;;;;;5014933;28;20404;-70
2023/12/24 04:43:04;;;;;;;4.65;1.33;;;;;;;;;;5015085;28;20400;-71
2023/12/24 04:45:29;;;;;;;1.63;1.30;;;;;;;;;;4996397;28;20385;-71
2023/12/24 04:47:58;;;;;;;1.55;1.23;;;;;;;;;;5014698;28;20902;-71
2023/12/24 04:50:24;;;;;;;1.50;1.38;;;;;;;;;;5014594;28;20381;-71
2023/12/24 04:52:50;;;;;;;2.70;1.20;;;;;;;;;;5014281;28;20407;-71
2023/12/24 04:55:16;;;;;;;1.30;1.20;;;;;;;;;;5013985;28;20415;-71
2023/12/24 04:57:42;;;;;;;1.20;1.10;;;;;;;;;;5014177;28;20851;-71
2023/12/24 05:00:09;;;;;;;2.15;1.20;;;;;;;;;;5013998;28;20476;-72
2023/12/24 05:02:35;;;;;;;1.13;1.00;;;;;;;;;;5015059;28;20933;-68
2023/12/24 05:05:03;;;;;;;1.30;1.20;;;;;;;;;;5015378;28;20449;-73
2023/12/24 05:07:29;;;;;;;1.02;0.93;;;;;;;;;;5014802;28;20385;-73
2023/12/24 05:09:55;;;;;;;0.80;0.80;;;;;;;;;;5013467;28;20391;-72
2023/12/24 05:12:21;;;;;;;1.10;1.10;;;;;;;;;;5013435;28;20385;-73
2023/12/24 05:14:47;;;;;;;1.05;1.00;;;;;;;;;;5013084;28;20388;-72
2023/12/24 05:17:13;;;;;;;1.17;1.00;;;;;;;;;;4995633;28;20460;-72
2023/12/24 05:19:39;;;;;;;1.20;1.10;;;;;;;;;;5013692;28;20409;-74
2023/12/24 05:22:05;;;;;;;1.30;1.00;;;;;;;;;;5014301;28;20400;-71
2023/12/24 05:24:31;;;;;;;1.00;0.90;;;;;;;;;;5014183;28;20404;-71
2023/12/24 05:26:57;;;;;;;0.90;0.90;;;;;;;;;;5013991;28;20384;-73
2023/12/24 05:29:23;;;;;;;0.90;0.90;;;;;;;;;;5013799;28;20388;-69
2023/12/24 05:31:49;;;;;;;1.27;0.90;;;;;;;;;;5013463;28;20389;-72
2023/12/24 05:34:15;;;;;;;0.93;0.90;;;;;;;;;;5013642;28;20447;-70
2023/12/24 05:36:41;;;;;;;1.07;1.00;;;;;;;;;;4995972;28;20476;-72
2023/12/24 05:39:11;;;;;;;0.70;0.70;;;;;;;;;;4995814;28;20385;-70
2023/12/24 05:41:37;;;;;;;1.00;0.90;;;;;;;;;;4995368;28;21001;-71
2023/12/24 05:44:03;;;;;;;0.90;0.90;;;;;;;;;;5013751;28;20867;-69
2023/12/24 05:46:29;;;;;;;1.48;0.90;;;;;;;;;;4996067;28;20377;-71
2023/12/24 05:48:55;;;;;;;1.00;0.90;;;;;;;;;;5013640;28;20516;-69
2023/12/24 05:51:21;;;;;;;1.55;1.00;;;;;;;;;;5013714;28;20444;-69
2023/12/24 05:53:47;;;;;;;0.90;0.90;;;;;;;;;;5013628;28;20397;-70
2023/12/24 05:56:13;;;;;;;0.90;0.90;;;;;;;;;;4996221;28;20879;-69
2023/12/24 05:58:39;;;;;;;0.90;0.90;;;;;;;;;;4995808;28;20397;-71
2023/12/24 06:01:05;;;;;;;1.30;1.10;;;;;;;;;;5013381;28;20474;-70
2023/12/24 06:03:31;;;;;;;0.90;0.90;;;;;;;;;;4995823;28;20890;-69
2023/12/24 06:05:57;;;;;;;1.07;0.97;;;;;;;;;;5013735;28;20860;-69
2023/12/24 06:08:23;;;;;;;0.98;0.88;;;;;;;;;;4995483;28;20527;-69
2023/12/24 06:10:50;;;;;;;0.90;0.90;;;;;;;;;;5015570;28;20400;-69
2023/12/24 06:13:15;;;;;;;1.10;0.90;;;;;;;;;;5017841;28;20376;-69
2023/12/24 06:15:41;;;;;;;0.95;0.90;;;;;;;;;;4999048;28;20388;-70
2023/12/24 06:18:09;;;;;;;1.13;1.08;;;;;;;;;;5017357;28;20392;-69
2023/12/24 06:20:37;;;;;;;0.90;0.90;;;;;;;;;;5017094;28;20423;-70
2023/12/24 06:23:03;;;;;;;0.90;0.90;;;;;;;;;;4999445;28;20385;-70
2023/12/24 06:25:29;;;;;;;1.10;1.00;;;;;;;;;;5017068;28;20388;-70
2023/12/24 06:27:55;;;;;;;0.95;0.90;;;;;;;;;;5017538;28;20385;-68
2023/12/24 06:30:21;;;;;;;1.10;1.00;;;;;;;;;;4999354;28;20405;-71
2023/12/24 06:32:48;;;;;;;1.17;1.17;;;;;;;;;;5016767;28;20385;-70
2023/12/24 06:35:14;;;;;;;1.20;1.10;;;;;;;;;;5016466;28;20452;-70
2023/12/24 06:37:40;;;;;;;0.90;0.90;;;;;;;;;;5016634;28;20387;-69
2023/12/24 06:40:06;;;;;;;1.10;1.03;;;;;;;;;;5016378;28;20466;-70
2023/12/24 06:42:32;;;;;;;1.10;1.10;;;;;;;;;;5016614;28;20412;-68
2023/12/24 06:44:58;;;;;;;1.10;1.00;;;;;;;;;;5016277;28;20384;-71
2023/12/24 06:47:24;;;;;;;1.40;1.00;;;;;;;;;;5016740;28;20404;-68
2023/12/24 06:49:50;;;;;;;1.00;0.90;;;;;;;;;;5016390;28;20377;-70
2023/12/24 06:52:16;;;;;;;0.93;0.93;;;;;;;;;;4998375;28;20447;-69
2023/12/24 06:54:42;;;;;;;1.45;1.10;;;;;;;;;;4999383;28;20380;-69
2023/12/24 06:57:08;;;;;;;1.50;1.00;;;;;;;;;;5017195;28;20400;-70
2023/12/24 06:59:35;;;;;;;1.02;1.00;;;;;;;;;;5016074;28;20393;-70
2023/12/24 07:02:01;;;;;;;1.20;1.10;;;;;;;;;;4999119;28;20508;-69
2023/12/24 07:04:27;;;;;;;1.30;1.10;;;;;;;;;;4999039;28;20396;-69
2023/12/24 07:06:53;;;;;;;1.40;1.00;;;;;;;;;;5016204;28;20377;-69
2023/12/24 07:09:18;;;;;;;1.10;1.10;;;;;;;;;;4998835;28;20755;-70
2023/12/24 07:11:45;;;;;;;1.60;1.30;;;;;;;;;;5016911;28;20389;-68
2023/12/24 07:14:11;;;;;;;1.13;1.10;;;;;;;;;;5016535;28;20393;-69
2023/12/24 07:16:36;;;;;;;1.27;1.17;;;;;;;;;;5015871;28;20387;-68
2023/12/24 07:19:07;;;;;;;1.38;1.20;;;;;;;;;;5015761;28;20381;-69
2023/12/24 07:21:33;;;;;;;1.20;1.10;;;;;;;;;;5016438;28;20508;-69
2023/12/24 07:23:59;;;;;;;2.33;2.10;;;;;;;;;;5017996;28;20385;-69
2023/12/24 07:26:25;;;;;;;1.80;1.03;;;;;;;;;;5018849;28;20416;-69
2023/12/24 07:28:52;;;;;;;1.27;0.98;;;;;;;;;;5018545;28;20824;-69
2023/12/24 07:31:18;;;;;;;1.05;1.00;;;;;;;;;;5017065;28;20392;-68
2023/12/24 07:33:44;;;;;;;1.00;1.00;;;;;;;;;;5000305;28;20512;-71
2023/12/24 07:36:10;;;;;;;0.98;0.98;;;;;;;;;;5018295;28;20883;-69
2023/12/24 07:38:36;;;;;;;1.40;1.10;;;;;;;;;;4999161;28;20391;-70
2023/12/24 07:41:03;;;;;;;1.35;0.90;;;;;;;;;;5015109;28;20424;-70
2023/12/24 07:43:29;;;;;;;1.25;1.15;;;;;;;;;;5014871;28;20935;-69
2023/12/24 07:45:55;;;;;;;1.13;1.10;;;;;;;;;;5015439;28;20413;-69
2023/12/24 07:48:21;;;;;;;1.53;1.20;;;;;;;;;;5015340;28;20373;-70
2023/12/24 07:50:47;;;;;;;1.20;1.10;;;;;;;;;;4997616;28;20905;-69
2023/12/24 07:53:13;;;;;;;1.07;1.00;;;;;;;;;;5015576;28;20411;-70
2023/12/24 07:55:40;;;;;;;1.10;1.00;;;;;;;;;;4997185;28;20496;-70
2023/12/24 07:58:06;;;;;;;2.00;1.10;;;;;;;;;;5014783;28;20384;-71
2023/12/24 08:00:31;;;;;;;1.48;1.13;;;;;;;;;;5014078;28;20751;-70
2023/12/24 08:02:57;;;;;;;1.30;1.20;;;;;;;;;;4996399;28;20385;-71
2023/12/24 08:05:23;;;;;;;1.50;1.40;;;;;;;;;;5014301;28;20485;-69
2023/12/24 08:07:49;;;;;;;1.30;1.20;;;;;;;;;;5014080;28;20377;-69
2023/12/24 08:10:15;;;;;;;1.42;1.23;;;;;;;;;;4996341;28;20389;-69
2023/12/24 08:12:42;;;;;;;1.70;1.20;;;;;;;;;;5013808;28;20385;-69
2023/12/24 08:15:08;;;;;;;1.27;1.17;;;;;;;;;;5014757;28;20381;-69
2023/12/24 08:17:34;;;;;;;1.75;1.20;;;;;;;;;;5014138;28;20388;-69
2023/12/24 08:20:00;;;;;;;1.40;1.30;;;;;;;;;;5013450;28;20377;-68
2023/12/24 08:22:26;;;;;;;1.17;1.10;;;;;;;;;;5013510;28;20412;-69
2023/12/24 08:24:52;;;;;;;1.33;1.23;;;;;;;;;;5013398;28;20456;-70
2023/12/24 08:27:18;;;;;;;1.80;1.20;;;;;;;;;;5013550;28;20400;-65
2023/12/24 08:29:44;;;;;;;1.90;1.27;;;;;;;;;;5014435;28;20377;-69
2023/12/24 08:32:10;;;;;;;1.65;1.15;;;;;;;;;;5013578;28;20381;-67
2023/12/24 08:34:36;;;;;;;1.50;1.30;;;;;;;;;;5012928;28;20747;-70
2023/12/24 08:37:02;;;;;;;1.33;1.20;;;;;;;;;;5013604;28;20712;-70
2023/12/24 08:39:28;;;;;;;1.30;1.20;;;;;;;;;;4995591;28;21014;-69
2023/12/24 08:41:54;;;;;;;2.03;1.30;;;;;;;;;;4995489;28;20846;-70
2023/12/24 08:44:20;;;;;;;1.52;1.42;;;;;;;;;;5013301;28;20875;-68
2023/12/24 08:46:48;;;;;;;1.57;1.30;;;;;;;;;;5013199;28;20468;-70
2023/12/24 08:49:15;;;;;;;1.10;1.00;;;;;;;;;;5013349;28;20384;-69
2023/12/24 08:51:41;;;;;;;1.30;1.20;;;;;;;;;;5013225;28;20826;-69
2023/12/24 08:54:08;;;;;;;1.40;1.10;;;;;;;;;;4995557;28;20871;-70
2023/12/24 08:56:34;;;;;;;1.00;1.00;;;;;;;;;;5013089;28;20381;-69
2023/12/24 08:59:00;;;;;;;1.58;1.10;;;;;;;;;;5013121;28;20393;-69
2023/12/24 09:01:26;;;;;;;1.30;1.20;;;;;;;;;;4995078;28;20488;-69
2023/12/24 09:03:52;;;;;;;1.30;1.20;;;;;;;;;;5012786;28;20381;-69
2023/12/24 09:06:18;;;;;;;1.30;1.20;;;;;;;;;;5012849;28;20472;-69
2023/12/24 09:08:44;;;;;;;1.20;1.10;;;;;;;;;;5012508;28;20384;-69
2023/12/24 09:11:10;;;;;;;1.58;1.10;;;;;;;;;;5012541;28;20389;-71
2023/12/24 09:13:35;;;;;;;0.90;0.90;;;;;;;;;;5012879;28;20413;-68
2023/12/24 09:16:03;;;;;;;0.80;0.80;;;;;;;;;;5013180;28;20451;-70
2023/12/24 09:18:29;;;;;;;1.20;0.80;;;;;;;;;;5012377;28;20442;-71
2023/12/24 09:20:55;;;;;;;1.15;1.05;;;;;;;;;;5012721;28;20495;-71
2023/12/24 09:23:21;;;;;;;1.05;0.80;;;;;;;;;;5012627;28;20821;-70
2023/12/24 09:25:47;;;;;;;1.20;0.90;;;;;;;;;;5012441;28;20389;-70
2023/12/24 09:28:12;;;;;;;0.80;0.80;;;;;;;;;;5012571;28;20380;-70
2023/12/24 09:30:38;;;;;;;1.20;1.00;;;;;;;;;;4994667;28;20447;-70
2023/12/24 09:33:04;;;;;;;1.05;0.90;;;;;;;;;;4994476;28;20384;-70
2023/12/24 09:35:30;;;;;;;1.10;1.00;;;;;;;;;;5012262;28;20798;-68
2023/12/24 09:37:56;;;;;;;0.80;0.80;;;;;;;;;;5012294;28;20879;-69
2023/12/24 09:40:22;;;;;;;1.00;0.90;;;;;;;;;;5012106;28;20381;-70
2023/12/24 09:42:49;;;;;;;0.85;0.80;;;;;;;;;;5012345;28;20396;-68
2023/12/24 09:45:15;;;;;;;1.00;0.90;;;;;;;;;;5012353;28;20863;-68
2023/12/24 09:47:41;;;;;;;0.90;0.90;;;;;;;;;;5012956;28;20416;-69
2023/12/24 09:50:07;;;;;;;1.05;1.00;;;;;;;;;;5012705;28;20933;-69
2023/12/24 09:52:34;;;;;;;1.10;0.95;;;;;;;;;;4994596;28;20400;-70
2023/12/24 09:55:01;;;;;;;1.00;0.90;;;;;;;;;;5012540;28;20392;-69
2023/12/24 09:57:27;;;;;;;1.80;0.90;;;;;;;;;;5012481;28;20399;-70
2023/12/24 09:59:53;;;;;;;1.10;1.00;;;;;;;;;;4995349;28;20385;-70
2023/12/24 10:02:19;;;;;;;1.10;0.95;;;;;;;;;;4995629;28;20472;-70
2023/12/24 10:04:45;;;;;;;1.25;1.15;;;;;;;;;;5013403;28;20756;-68
2023/12/24 10:07:11;;;;;;;1.90;1.55;;;;;;;;;;4994968;28;20401;-68
2023/12/24 10:09:43;;;;;;;1.20;1.05;;;;;;;;;;5012905;28;20815;-70
2023/12/24 10:12:09;;;;;;;0.98;0.98;;;;;;;;;;5012794;28;20396;-68
2023/12/24 10:14:36;;;;;;;2.00;1.45;;;;;;;;;;4995551;28;20385;-69
2023/12/24 10:17:03;;;;;;;1.50;0.93;;;;;;;;;;4995803;28;20403;-70
2023/12/24 10:19:29;;;;;;;1.90;1.20;;;;;;;;;;5013962;28;20415;-70
2023/12/24 10:22:22;;;;;;;1.70;1.20;;;;;;;;;;5013759;28;20400;-69
2023/12/24 10:24:48;;;;;;;1.50;1.10;;;;;;;;;;5011207;28;20926;-67
2023/12/24 10:27:15;;;;;;;1.42;0.98;;;;;;;;;;4996570;28;20381;-70
2023/12/24 10:29:42;;;;;;;1.10;1.00;;;;;;;;;;5014818;28;20384;-70
2023/12/24 10:32:10;;;;;;;1.13;0.90;;;;;;;;;;5012305;28;20411;-70
2023/12/24 10:34:37;;;;;;;0.98;0.95;;;;;;;;;;5013097;28;20381;-70
2023/12/24 10:37:22;;;;;;;0.80;0.80;;;;;;;;;;5012669;28;20774;-71
2023/12/24 10:39:49;;;;;;;1.23;1.00;;;;;;;;;;5012980;28;20380;-68
2023/12/24 10:42:15;;;;;;;2.70;0.90;;;;;;;;;;4994824;28;20412;-69
2023/12/24 10:44:42;;;;;;;1.10;0.80;;;;;;;;;;5012566;28;20465;-71
2023/12/24 10:47:08;;;;;;;1.50;0.90;;;;;;;;;;4994741;28;20795;-70
2023/12/24 10:49:34;;;;;;;1.25;1.13;;;;;;;;;;4994273;28;20393;-69
2023/12/24 10:52:00;;;;;;;1.67;0.88;;;;;;;;;;5011766;28;20400;-71
2023/12/24 10:54:27;;;;;;;1.10;0.80;;;;;;;;;;5011785;28;20384;-70
2023/12/24 10:57:02;;;;;;;0.90;0.90;;;;;;;;;;4994709;28;20393;-70
2023/12/24 10:59:47;;;;;;;2.20;1.13;;;;;;;;;;5015801;28;20446;-71
2023/12/24 11:02:13;;;;;;;2.85;0.98;;;;;;;;;;5015399;28;20451;-71
2023/12/24 11:04:44;;;;;;;1.93;0.90;;;;;;;;;;4997890;28;20373;-70
2023/12/24 11:07:10;;;;;;;1.45;0.95;;;;;;;;;;4997451;28;20421;-70
2023/12/24 11:09:36;;;;;;;2.30;1.10;;;;;;;;;;5015474;28;20421;-69
2023/12/24 11:12:02;;;;;;;1.00;1.00;;;;;;;;;;5015414;28;20407;-70
2023/12/24 11:14:37;;;;;;;1.90;1.23;;;;;;;;;;4997527;28;20859;-70
2023/12/24 11:17:05;;;;;;;1.55;1.10;;;;;;;;;;5015341;28;20458;-69
2023/12/24 11:19:41;;;;;;;1.50;1.20;;;;;;;;;;5015031;28;20450;-69
2023/12/24 11:22:10;;;;;;;2.15;1.15;;;;;;;;;;5014662;28;20450;-70
2023/12/24 11:24:41;;;;;;;2.50;1.58;;;;;;;;;;5015119;28;20408;-71
2023/12/24 11:27:08;;;;;;;3.10;1.50;;;;;;;;;;5015417;28;20424;-69
2023/12/24 11:29:50;;;;;;;1.95;1.50;;;;;;;;;;5014829;28;20385;-69
2023/12/24 11:32:22;;;;;;;1.60;1.40;;;;;;;;;;5014513;28;20889;-70
2023/12/24 11:34:48;;;;;;;2.30;1.50;;;;;;;;;;4996792;28;20385;-70
2023/12/24 11:37:25;;;;;;;1.77;1.65;;;;;;;;;;5014319;28;20755;-70
2023/12/24 11:40:06;;;;;;;2.00;1.80;;;;;;;;;;5014860;28;20385;-71
2023/12/24 11:42:46;;;;;;;2.80;1.80;;;;;;;;;;5014319;28;20467;-69
2023/12/24 11:45:26;;;;;;;3.35;1.80;;;;;;;;;;5014338;28;20388;-71
2023/12/24 11:47:52;;;;;;;3.20;2.00;;;;;;;;;;5014247;28;20385;-71
2023/12/24 11:50:19;;;;;;;3.88;2.10;;;;;;;;;;5014084;28;20376;-68
2023/12/24 11:52:46;;;;;;;2.63;1.95;;;;;;;;;;5013948;28;20496;-69
2023/12/24 11:55:18;;;;;;;3.88;2.40;;;;;;;;;;5014118;28;20389;-69
2023/12/24 11:57:45;;;;;;;3.00;2.25;;;;;;;;;;4996269;28;20385;-70
2023/12/24 12:00:15;;;;;;;3.47;2.33;;;;;;;;;;5013851;28;20395;-70
2023/12/24 12:02:42;;;;;;;2.10;1.90;;;;;;;;;;5013889;28;20404;-70
2023/12/24 12:05:08;;;;;;;2.60;2.10;;;;;;;;;;5013645;28;20396;-69
2023/12/24 12:07:35;;;;;;;2.60;2.40;;;;;;;;;;4996296;28;20381;-67
2023/12/24 12:10:01;;;;;;;3.13;2.20;;;;;;;;;;4996040;28;20914;-69
2023/12/24 12:12:27;;;;;;;2.45;2.03;;;;;;;;;;5013803;28;20400;-69
2023/12/24 12:14:53;;;;;;;3.38;2.33;;;;;;;;;;5013766;28;20388;-68
2023/12/24 12:17:18;;;;;;;2.27;2.07;;;;;;;;;;4996136;28;20798;-67
2023/12/24 12:19:44;;;;;;;2.50;2.20;;;;;;;;;;5013697;28;20764;-68
2023/12/24 12:22:10;;;;;;;3.78;2.40;;;;;;;;;;5013335;28;20929;-68
2023/12/24 12:24:36;;;;;;;2.75;2.10;;;;;;;;;;4996014;28;20752;-66
2023/12/24 12:27:03;;;;;;;2.67;2.10;;;;;;;;;;4996462;28;20470;-66
2023/12/24 12:29:29;;;;;;;2.92;1.88;;;;;;;;;;5013461;28;20381;-67
2023/12/24 12:31:57;;;;;;;2.92;2.05;;;;;;;;;;5013254;28;20446;-67
2023/12/24 12:34:23;;;;;;;2.10;1.80;;;;;;;;;;5014096;28;20381;-68
2023/12/24 12:36:49;;;;;;;2.25;1.80;;;;;;;;;;5013499;28;20385;-70
2023/12/24 12:39:16;;;;;;;2.00;1.80;;;;;;;;;;5013672;28;20387;-68
2023/12/24 12:41:42;;;;;;;2.08;1.52;;;;;;;;;;5014319;28;20479;-68
2023/12/24 12:44:08;;;;;;;1.80;1.70;;;;;;;;;;4996037;28;20752;-69
2023/12/24 12:46:34;;;;;;;1.95;1.40;;;;;;;;;;5014347;28;20859;-70
2023/12/24 12:49:00;;;;;;;1.50;1.40;;;;;;;;;;5013697;28;20479;-70
2023/12/24 12:51:26;;;;;;;4.03;2.42;;;;;;;;;;5013370;28;20823;-68
2023/12/24 12:53:52;;;;;;;1.90;1.70;;;;;;;;;;4996030;28;20393;-70
2023/12/24 12:56:18;;;;;;;2.92;1.90;;;;;;;;;;5013568;28;20392;-70
2023/12/24 12:58:51;;;;;;;3.08;1.50;;;;;;;;;;5013039;28;20396;-70
2023/12/24 13:01:17;;;;;;;1.70;1.60;;;;;;;;;;5013048;28;20420;-68
2023/12/24 13:03:57;;;;;;;2.53;2.33;;;;;;;;;;5013092;28;20380;-71
2023/12/24 13:06:23;;;;;;;2.03;1.80;;;;;;;;;;5012772;28;20791;-69
2023/12/24 13:08:49;;;;;;;2.10;1.40;;;;;;;;;;5013436;28;20385;-70
2023/12/24 13:11:15;;;;;;;2.13;1.10;;;;;;;;;;4995125;28;20385;-68
2023/12/24 13:13:41;;;;;;;2.80;1.57;;;;;;;;;;5013094;28;20847;-70
2023/12/24 13:16:07;;;;;;;1.30;1.20;;;;;;;;;;5013095;28;20412;-69
2023/12/24 13:18:34;;;;;;;1.50;1.40;;;;;;;;;;5012774;28;20392;-71
2023/12/24 13:21:04;;;;;;;2.80;1.42;;;;;;;;;;4994566;28;20444;-69
2023/12/24 13:23:31;;;;;;;2.30;1.42;;;;;;;;;;5013005;28;20732;-69
2023/12/24 13:25:57;;;;;;;1.40;1.30;;;;;;;;;;4995912;28;20472;-70
2023/12/24 13:28:24;;;;;;;1.77;1.30;;;;;;;;;;5013472;28;20871;-70
2023/12/24 13:30:50;;;;;;;1.45;1.35;;;;;;;;;;5012866;28;20849;-70
2023/12/24 13:33:16;;;;;;;2.65;1.90;;;;;;;;;;4995041;28;20391;-69
2023/12/24 13:35:44;;;;;;;1.50;1.40;;;;;;;;;;5012664;28;20396;-70
2023/12/24 13:38:12;;;;;;;1.97;1.50;;;;;;;;;;4995292;28;20385;-68
2023/12/24 13:40:40;;;;;;;2.17;1.97;;;;;;;;;;4994996;28;20484;-69
2023/12/24 13:43:06;;;;;;;2.60;1.50;;;;;;;;;;5012507;28;20494;-68
2023/12/24 13:45:33;;;;;;;2.05;1.50;;;;;;;;;;5012645;28;20381;-69
2023/12/24 13:48:02;;;;;;;1.75;1.63;;;;;;;;;;4994640;28;20412;-69
2023/12/24 13:50:28;;;;;;;1.85;1.70;;;;;;;;;;5012432;28;20408;-70
2023/12/24 13:52:54;;;;;;;3.63;2.25;;;;;;;;;;5012247;28;20389;-67
2023/12/24 13:55:21;;;;;;;2.30;1.70;;;;;;;;;;5012900;28;20434;-69
2023/12/24 13:57:47;;;;;;;3.22;1.60;;;;;;;;;;5012902;28;20419;-68
2023/12/24 14:00:14;;;;;;;2.67;1.92;;;;;;;;;;4995442;28;20381;-68
2023/12/24 14:02:40;;;;;;;2.70;1.77;;;;;;;;;;5012174;28;20416;-70
2023/12/24 14:05:07;;;;;;;3.28;2.10;;;;;;;;;;5012086;28;20404;-67
2023/12/24 14:07:32;;;;;;;2.20;2.00;;;;;;;;;;4994329;28;20388;-66
2023/12/24 14:10:00;;;;;;;2.33;1.70;;;;;;;;;;4994853;28;20882;-65
2023/12/24 14:12:26;;;;;;;2.08;1.80;;;;;;;;;;4994472;28;20384;-69
2023/12/24 14:14:52;;;;;;;3.47;1.97;;;;;;;;;;5012365;28;20803;-69
2023/12/24 14:17:18;;;;;;;2.22;1.80;;;;;;;;;;5012112;28;20472;-69
2023/12/24 14:19:45;;;;;;;2.90;2.17;;;;;;;;;;4994653;28;20457;-69
2023/12/24 14:22:11;;;;;;;2.75;2.20;;;;;;;;;;5012002;28;20408;-72
2023/12/24 14:24:37;;;;;;;3.63;2.10;;;;;;;;;;4994511;28;20393;-70
2023/12/24 14:27:04;;;;;;;2.33;2.13;;;;;;;;;;4994311;28;20380;-71
2023/12/24 14:29:30;;;;;;;2.97;2.00;;;;;;;;;;4994121;28;20373;-68
2023/12/24 14:31:56;;;;;;;2.97;1.88;;;;;;;;;;5014230;28;20396;-69
2023/12/24 14:34:22;;;;;;;2.95;2.13;;;;;;;;;;4998114;28;20384;-70
2023/12/24 14:36:48;;;;;;;2.47;2.28;;;;;;;;;;5015602;28;20384;-67
2023/12/24 14:39:14;;;;;;;3.67;2.40;;;;;;;;;;5016137;28;20956;-69